Time;durP1;ratioP1;P1;durP2;ratioP2;P2;SDS_P1;SDS_P2;PMS_P1;PMS_P2;Temp;Humidity;BMP_temperature;BMP_pressure;BME280_temperature;BME280_humidity;BME280_pressure;Samples;Min_cycle;Max_cycle;Signal;HPM_P1;HPM_P2
2022/08/04 00:00:32;;;;;;;8.68;5.47;;;;;;;22.13;74.09;101187.47;5012453;28;20108;-80
2022/08/04 00:03:17;;;;;;;9.18;5.50;;;;;;;22.20;73.16;101193.63;5004253;28;20113;-79
2022/08/04 00:06:10;;;;;;;8.45;5.38;;;;;;;22.13;73.31;101187.47;5013462;28;20144;-80
2022/08/04 00:08:48;;;;;;;8.18;5.30;;;;;;;22.07;73.41;101185.56;5026265;28;20556;-79
2022/08/04 00:11:19;;;;;;;10.43;5.43;;;;;;;21.90;73.95;101179.72;5038549;28;20025;-79
2022/08/04 00:13:52;;;;;;;9.45;5.72;;;;;;;21.95;73.69;101193.19;5019035;28;20029;-80
2022/08/04 00:16:21;;;;;;;9.80;5.45;;;;;;;21.85;73.98;101191.88;5032387;28;20064;-79
2022/08/04 00:18:58;;;;;;;9.75;6.32;;;;;;;21.92;73.28;101188.31;5012580;28;20180;-79
2022/08/04 00:21:25;;;;;;;10.63;5.22;;;;;;;21.82;74.00;101187.00;5022771;28;20175;-79
2022/08/04 00:23:53;;;;;;;8.88;5.50;;;;;;;21.85;74.08;101182.16;5018024;28;20025;-79
2022/08/04 00:26:19;;;;;;;11.30;5.72;;;;;;;21.71;74.36;101181.22;5025058;28;20156;-79
2022/08/04 00:28:46;;;;;;;8.32;6.03;;;;;;;21.61;74.93;101178.06;5015892;28;20026;-79
2022/08/04 00:31:14;;;;;;;10.55;6.20;;;;;;;21.67;74.49;101169.38;5023448;28;20031;-79
2022/08/04 00:33:42;;;;;;;10.60;6.00;;;;;;;21.69;74.34;101172.66;5021090;28;20036;-79
2022/08/04 00:36:10;;;;;;;10.52;5.82;;;;;;;21.65;74.49;101166.13;5029127;28;20101;-79
2022/08/04 00:38:36;;;;;;;11.32;5.97;;;;;;;21.58;74.60;101165.25;5019360;28;20053;-80
2022/08/04 00:41:19;;;;;;;9.60;6.07;;;;;;;21.68;73.83;101159.66;5037107;28;20028;-80
2022/08/04 00:43:44;;;;;;;10.55;5.88;;;;;;;21.54;74.15;101164.00;5029001;28;20520;-79
2022/08/04 00:46:40;;;;;;;10.23;5.63;;;;;;;21.56;74.13;101156.69;5029643;28;20033;-78
2022/08/04 00:49:18;;;;;;;10.18;6.00;;;;;;;21.46;74.37;101166.78;5023194;28;20029;-79
2022/08/04 00:51:54;;;;;;;12.27;6.37;;;;;;;21.52;73.96;101155.47;5026499;28;20113;-79
2022/08/04 00:54:45;;;;;;;11.07;6.10;;;;;;;21.57;73.36;101157.53;5026327;28;20030;-80
2022/08/04 00:57:29;;;;;;;10.20;6.03;;;;;;;21.48;73.86;101149.72;5021073;28;20126;-80
2022/08/04 01:00:05;;;;;;;8.52;5.65;;;;;;;21.42;73.67;101150.47;5016939;28;20021;-79
2022/08/04 01:02:58;;;;;;;9.52;5.57;;;;;;;21.59;72.92;101142.31;5027798;28;20385;-79
2022/08/04 01:05:45;;;;;;;10.32;5.97;;;;;;;21.57;72.92;101142.50;5010462;28;20116;-79
2022/08/04 01:08:29;;;;;;;9.73;6.00;;;;;;;21.38;72.82;101137.84;5007684;28;20057;-78
2022/08/04 01:11:06;;;;;;;10.07;5.60;;;;;;;21.62;71.55;101140.13;5009218;28;20523;-79
2022/08/04 01:13:50;;;;;;;9.98;5.38;;;;;;;21.63;71.04;101125.91;5046190;28;20025;-79
2022/08/04 01:16:16;;;;;;;10.27;5.18;;;;;;;21.41;70.63;101092.63;5041611;28;20049;-79
2022/08/04 01:19:06;;;;;;;8.20;5.22;;;;;;;21.78;69.99;101127.63;5022542;28;20032;-79
2022/08/04 01:21:37;;;;;;;7.88;5.00;;;;;;;21.73;69.86;101126.41;5009061;28;20038;-78
2022/08/04 01:24:15;;;;;;;9.35;5.25;;;;;;;21.80;69.89;101125.66;5025087;28;20103;-79
2022/08/04 01:27:10;;;;;;;11.80;5.70;;;;;;;21.74;69.82;101114.84;5006353;28;20464;-79
2022/08/04 01:29:55;;;;;;;10.55;5.57;;;;;;;21.79;69.59;101119.50;5023808;28;20279;-79
2022/08/04 01:32:30;;;;;;;10.23;5.47;;;;;;;21.71;69.47;101107.28;5019783;28;20030;-79
2022/08/04 01:35:19;;;;;;;11.85;5.25;;;;;;;21.71;69.41;101112.56;5013633;28;20025;-79
2022/08/04 01:37:48;;;;;;;9.88;5.85;;;;;;;21.45;70.33;101110.53;5015431;28;20481;-79
2022/08/04 01:40:14;;;;;;;9.10;5.60;;;;;;;21.62;69.54;101105.81;5019377;28;20025;-79
2022/08/04 01:42:41;;;;;;;9.85;5.20;;;;;;;21.60;69.52;101105.16;5014999;28;20500;-79
2022/08/04 01:45:11;;;;;;;9.10;5.28;;;;;;;21.60;69.32;101105.16;5009059;28;20030;-79
2022/08/04 01:47:41;;;;;;;9.43;5.47;;;;;;;21.62;69.50;101105.81;5011245;28;20448;-79
2022/08/04 01:50:09;;;;;;;11.77;5.55;;;;;;;21.58;69.70;101101.91;5018407;28;20033;-79
2022/08/04 01:52:37;;;;;;;9.98;5.30;;;;;;;21.43;69.73;101103.78;5025546;28;20500;-79
2022/08/04 01:55:09;;;;;;;12.43;5.43;;;;;;;21.31;70.66;101100.03;5020726;28;20401;-79
2022/08/04 01:57:40;;;;;;;10.00;5.25;;;;;;;21.37;69.52;101094.00;5040683;28;20079;-78
2022/08/04 02:00:06;;;;;;;9.52;5.25;;;;;;;21.51;69.23;101101.03;5015228;28;20068;-80
2022/08/04 02:02:32;;;;;;;11.13;5.45;;;;;;;21.35;70.37;101111.84;5024993;28;20032;-79
2022/08/04 02:04:57;;;;;;;9.25;5.38;;;;;;;21.15;71.25;101107.16;5027481;28;20036;-79
2022/08/04 02:07:44;;;;;;;10.60;6.07;;;;;;;21.12;71.35;101102.28;5025892;28;20053;-79
2022/08/04 02:10:29;;;;;;;9.95;5.47;;;;;;;21.31;70.35;101110.59;5028123;28;20021;-79
2022/08/04 02:13:15;;;;;;;10.27;5.45;;;;;;;21.01;71.91;101110.66;5009961;28;20072;-79
2022/08/04 02:16:07;;;;;;;10.85;5.80;;;;;;;21.23;70.53;101113.34;5024510;28;20037;-79
2022/08/04 02:18:42;;;;;;;10.18;5.50;;;;;;;21.00;71.54;101111.69;5009627;28;20029;-79
2022/08/04 02:21:08;;;;;;;8.90;5.88;;;;;;;20.92;71.76;101103.88;5027516;28;20037;-79
2022/08/04 02:23:37;;;;;;;8.45;5.05;;;;;;;20.88;72.22;101105.25;5027364;28;20075;-79
2022/08/04 02:26:12;;;;;;;8.40;5.07;;;;;;;20.84;72.11;101098.72;5025515;28;20444;-79
2022/08/04 02:28:46;;;;;;;10.48;5.60;;;;;;;20.87;72.20;101106.25;5024569;28;20103;-79
2022/08/04 02:31:26;;;;;;;10.07;5.55;;;;;;;20.94;72.00;101099.25;5018438;28;20101;-79
2022/08/04 02:34:00;;;;;;;10.45;5.28;;;;;;;20.91;71.46;101094.31;5013702;28;20061;-79
2022/08/04 02:36:37;;;;;;;9.63;5.20;;;;;;;20.87;72.25;101093.91;5009552;28;20073;-79
2022/08/04 02:39:06;;;;;;;10.43;5.47;;;;;;;20.82;72.04;101098.09;5019238;28;20104;-79
2022/08/04 02:41:32;;;;;;;10.13;5.47;;;;;;;20.66;72.47;101089.41;5028949;28;20486;-79
2022/08/04 02:44:01;;;;;;;11.13;5.68;;;;;;;20.58;72.35;101086.03;5026507;28;20386;-79
2022/08/04 02:46:27;;;;;;;;;;;;;;;20.94;70.83;101086.06;5033665;28;20023;-79
2022/08/04 02:48:53;;;;;;;9.65;5.20;;;;;;;20.64;71.95;101088.78;5027648;28;19916;-79
2022/08/04 02:51:33;;;;;;;9.93;5.40;;;;;;;20.83;71.63;101097.09;5035557;28;20030;-79
2022/08/04 02:54:01;;;;;;;7.93;5.40;;;;;;;20.77;71.98;101093.38;5022655;28;20025;-79
2022/08/04 02:56:29;;;;;;;10.27;5.07;;;;;;;20.73;72.34;101086.00;5014240;28;20485;-79
2022/08/04 02:59:09;;;;;;;7.70;4.88;;;;;;;20.62;72.47;101096.03;5029286;28;20029;-79
2022/08/04 03:01:35;;;;;;;8.23;5.10;;;;;;;20.51;73.75;101088.59;5025211;28;20448;-78
2022/08/04 03:04:13;;;;;;;8.20;5.30;;;;;;;20.61;73.18;101089.13;5009077;28;20036;-79
2022/08/04 03:07:03;;;;;;;9.60;5.78;;;;;;;20.57;74.03;101087.84;5026207;28;20478;-80
2022/08/04 03:10:00;;;;;;;12.10;5.63;;;;;;;20.57;73.46;101077.31;5024165;28;20041;-79
2022/08/04 03:12:57;;;;;;;13.43;6.25;;;;;;;20.48;74.93;101081.06;5021492;28;20033;-79
2022/08/04 03:15:34;;;;;;;11.57;6.10;;;;;;;20.40;75.78;101083.75;5024729;28;20025;-79
2022/08/04 03:18:15;;;;;;;11.27;5.75;;;;;;;20.34;75.74;101081.84;5017741;28;20489;-79
2022/08/04 03:21:11;;;;;;;10.13;6.03;;;;;;;20.52;75.23;101098.13;5020062;28;20030;-79
2022/08/04 03:23:55;;;;;;;11.13;6.40;;;;;;;20.44;76.27;101103.47;5021761;28;20036;-78
2022/08/04 03:26:59;;;;;;;10.57;7.28;;;;;;;20.39;76.05;101100.56;4998781;28;20057;-79
2022/08/04 03:29:42;;;;;;;11.45;8.20;;;;;;;20.39;75.53;101090.84;5007668;28;20050;-79
2022/08/04 03:32:10;;;;;;;11.77;7.75;;;;;;;20.47;75.26;101084.69;5021978;28;20413;-78
2022/08/04 03:35:01;;;;;;;13.02;8.38;;;;;;;20.38;75.94;101088.41;5012738;28;20087;-79
2022/08/04 03:37:58;;;;;;;13.02;8.43;;;;;;;20.28;76.61;101078.13;5018801;28;20110;-78
2022/08/04 03:40:55;;;;;;;11.88;8.15;;;;;;;20.42;76.10;101079.13;5033618;28;20025;-79
2022/08/04 03:43:31;;;;;;;11.82;9.10;;;;;;;20.33;76.39;101072.31;5022124;28;20021;-79
2022/08/04 03:46:12;;;;;;;12.18;8.65;;;;;;;20.31;76.69;101087.50;5004512;28;20022;-79
2022/08/04 03:49:11;;;;;;;10.65;8.70;;;;;;;20.25;76.92;101077.69;5019277;28;20556;-79
2022/08/04 03:55:20;;;;;;;12.10;8.73;;;;;;;20.23;76.83;101088.38;5023873;28;20428;-79
2022/08/04 03:57:58;;;;;;;11.15;8.52;;;;;;;20.20;77.22;101095.84;5004223;28;20033;-78
2022/08/04 04:00:39;;;;;;;11.60;8.77;;;;;;;20.15;78.25;101105.13;5022056;28;20125;-78
2022/08/04 04:03:37;;;;;;;12.30;8.52;;;;;;;20.19;78.17;101095.03;4992489;28;20025;-79
2022/08/04 04:06:29;;;;;;;14.80;9.23;;;;;;;20.09;78.71;101095.31;5014396;28;20067;-78
2022/08/04 04:09:28;;;;;;;13.27;8.68;;;;;;;20.08;79.03;101088.41;5020110;28;20037;-78
2022/08/04 04:12:03;;;;;;;12.82;9.18;;;;;;;20.01;79.68;101086.66;5015279;28;20132;-79
2022/08/04 04:14:43;;;;;;;13.70;8.77;;;;;;;20.06;78.95;101095.66;5017103;28;20037;-79
2022/08/04 04:17:41;;;;;;;11.23;8.75;;;;;;;20.05;78.89;101094.03;5035813;28;20024;-78
2022/08/04 04:20:16;;;;;;;14.35;9.63;;;;;;;20.03;79.69;101100.47;5014667;28;20022;-78
2022/08/04 04:23:19;;;;;;;12.02;9.20;;;;;;;20.17;78.53;101103.09;5025319;28;20033;-78
2022/08/04 04:26:05;;;;;;;11.75;8.95;;;;;;;20.19;78.98;101099.50;5025960;28;20030;-78
2022/08/04 04:29:18;;;;;;;11.63;9.15;;;;;;;20.17;78.91;101097.84;5001924;28;20389;-78
2022/08/04 04:31:56;;;;;;;13.52;9.88;;;;;;;20.15;79.33;101096.41;5028719;28;20017;-78
2022/08/04 04:34:37;;;;;;;15.88;10.15;;;;;;;20.07;79.77;101097.31;5024946;28;20079;-78
2022/08/04 04:37:12;;;;;;;14.40;10.13;;;;;;;20.13;79.50;101096.59;5021946;28;20520;-78
2022/08/04 04:39:49;;;;;;;13.23;9.95;;;;;;;20.10;79.86;101102.19;5006274;28;20025;-78
2022/08/04 04:42:51;;;;;;;13.50;9.75;;;;;;;20.24;79.12;101107.66;5022173;28;20025;-78
2022/08/04 04:45:42;;;;;;;16.02;10.07;;;;;;;20.15;79.65;101105.13;5020119;28;20124;-78
2022/08/04 04:48:21;;;;;;;12.73;10.23;;;;;;;20.13;79.64;101107.13;5018315;28;20018;-78
2022/08/04 04:51:13;;;;;;;14.70;10.32;;;;;;;20.28;79.38;101108.94;5006623;28;20026;-78
2022/08/04 04:53:46;;;;;;;12.77;10.10;;;;;;;20.25;79.74;101104.03;5026083;28;20033;-78
2022/08/04 04:56:29;;;;;;;15.63;10.68;;;;;;;20.34;79.64;101108.19;5024765;28;20040;-78
2022/08/04 04:58:56;;;;;;;14.45;10.60;;;;;;;20.30;80.52;101112.19;5006464;28;20051;-79
2022/08/04 05:01:21;;;;;;;12.87;10.47;;;;;;;20.30;80.92;101112.19;5033122;28;20064;-79
2022/08/04 05:04:05;;;;;;;15.38;11.88;;;;;;;20.41;81.00;101114.38;5025488;28;20083;-79
2022/08/04 05:06:37;;;;;;;14.70;11.40;;;;;;;20.38;81.54;101114.75;5005496;28;20458;-79
2022/08/04 05:09:11;;;;;;;14.23;11.88;;;;;;;20.38;82.39;101120.00;5006816;28;20117;-79
2022/08/04 05:11:42;;;;;;;16.48;11.38;;;;;;;20.49;81.29;101122.22;5001480;28;20456;-78
2022/08/04 05:14:22;;;;;;;16.42;11.85;;;;;;;20.50;82.04;101123.84;5027349;28;20029;-79
2022/08/04 05:16:56;;;;;;;15.52;11.38;;;;;;;20.59;81.55;101121.94;5025548;28;20020;-79
2022/08/04 05:19:38;;;;;;;14.38;11.13;;;;;;;20.60;81.54;101119.13;5016568;28;20044;-79
2022/08/04 05:22:09;;;;;;;16.63;11.20;;;;;;;20.68;80.52;101124.28;5015050;28;20407;-78
2022/08/04 05:24:39;;;;;;;13.75;10.85;;;;;;;20.75;80.81;101126.19;5019190;28;20754;-79
2022/08/04 05:27:13;;;;;;;14.65;10.70;;;;;;;20.86;79.42;101115.97;5038562;28;20361;-79
2022/08/04 05:29:53;;;;;;;16.05;10.98;;;;;;;20.85;79.13;101116.16;5022013;28;20382;-79
2022/08/04 05:32:25;;;;;;;18.20;11.48;;;;;;;20.87;80.17;101109.72;5017017;28;20029;-79
2022/08/04 05:35:08;;;;;;;16.20;10.60;;;;;;;20.99;78.75;101112.69;5027644;28;20062;-79
2022/08/04 05:37:37;;;;;;;16.45;10.35;;;;;;;21.03;79.09;101111.28;5009955;28;20083;-78
2022/08/04 05:40:05;;;;;;;15.25;11.27;;;;;;;21.04;78.54;101105.00;5029403;28;20032;-80
2022/08/04 05:42:33;;;;;;;20.52;11.40;;;;;;;21.02;78.79;101112.31;5008082;28;20068;-79
2022/08/04 05:44:59;;;;;;;16.73;11.27;;;;;;;21.10;78.99;101111.34;5021343;28;20048;-78
2022/08/04 05:47:26;;;;;;;15.65;11.13;;;;;;;21.09;79.22;101107.91;5014763;28;20345;-79
2022/08/04 05:49:54;;;;;;;20.10;11.73;;;;;;;21.17;79.60;101110.44;5025216;28;20111;-79
2022/08/04 05:52:20;;;;;;;17.00;11.53;;;;;;;21.19;80.73;101110.25;5007018;28;20022;-79
2022/08/04 05:54:48;;;;;;;15.90;10.32;;;;;;;21.31;79.43;101115.88;5017939;28;20462;-79
2022/08/04 05:57:14;;;;;;;16.00;10.85;;;;;;;21.39;79.82;101113.09;5009820;28;20456;-78
2022/08/04 05:59:45;;;;;;;16.13;11.05;;;;;;;21.40;80.31;101098.91;5010030;28;20029;-79
2022/08/04 06:02:13;;;;;;;17.02;11.23;;;;;;;21.52;79.62;101107.94;5025674;28;20396;-79
2022/08/04 06:04:41;;;;;;;16.73;11.50;;;;;;;21.53;78.16;101104.28;5028667;28;20025;-79
2022/08/04 06:07:09;;;;;;;13.95;11.32;;;;;;;21.41;78.15;101095.25;5005311;28;20083;-78
2022/08/04 06:09:36;;;;;;;13.55;10.75;;;;;;;21.56;77.77;101103.09;5008437;28;20033;-79
2022/08/04 06:12:06;;;;;;;15.25;10.77;;;;;;;21.55;77.80;101097.00;5022756;28;20095;-79
2022/08/04 06:14:37;;;;;;;15.18;10.82;;;;;;;21.49;78.04;101081.91;5007885;28;20112;-79
2022/08/04 06:17:05;;;;;;;15.25;11.18;;;;;;;21.67;77.52;101106.03;5000614;28;20033;-79
2022/08/04 06:19:34;;;;;;;17.13;11.48;;;;;;;21.68;77.66;101091.84;5025190;28;20845;-79
2022/08/04 06:22:03;;;;;;;14.25;10.75;;;;;;;21.80;78.03;101089.50;5015516;28;20021;-79
2022/08/04 06:24:29;;;;;;;17.13;11.02;;;;;;;21.89;77.04;101087.50;5013993;28;20021;-78
2022/08/04 06:26:55;;;;;;;18.15;11.57;;;;;;;21.93;78.26;101088.75;5018305;28;20034;-79
2022/08/04 06:29:29;;;;;;;18.52;11.48;;;;;;;21.95;79.01;101086.72;4994802;28;20138;-79
2022/08/04 06:31:58;;;;;;;15.60;11.82;;;;;;;22.01;77.88;101089.41;5026881;28;20032;-79
2022/08/04 06:34:25;;;;;;;14.73;10.95;;;;;;;22.07;77.78;101090.47;5037552;28;20025;-79
2022/08/04 06:36:51;;;;;;;16.08;12.25;;;;;;;22.09;77.67;101099.03;5016371;28;20025;-79
2022/08/04 06:39:17;;;;;;;15.95;11.65;;;;;;;22.13;78.28;101100.28;5024298;28;20065;-79
2022/08/04 06:41:43;;;;;;;16.65;11.07;;;;;;;22.23;77.47;101094.66;5027317;28;20113;-79
2022/08/04 06:44:10;;;;;;;16.25;11.30;;;;;;;22.25;78.31;101098.75;5018783;28;20462;-79
2022/08/04 06:46:39;;;;;;;17.80;11.25;;;;;;;22.31;78.48;101098.94;5023817;28;20029;-80
2022/08/04 06:49:05;;;;;;;15.95;11.80;;;;;;;22.29;77.86;101098.34;5009760;28;20029;-79
2022/08/04 06:51:33;;;;;;;18.40;12.30;;;;;;;22.32;78.84;101105.91;5026487;28;20025;-79
2022/08/04 06:53:58;;;;;;;17.20;12.15;;;;;;;22.36;78.58;101109.75;5038327;28;20048;-79
2022/08/04 06:56:26;;;;;;;15.55;11.90;;;;;;;22.44;77.96;101112.25;5026924;28;20049;-80
2022/08/04 06:58:53;;;;;;;15.32;12.45;;;;;;;22.49;79.20;101120.41;5025071;28;20021;-79
2022/08/04 07:01:20;;;;;;;16.98;12.85;;;;;;;22.53;77.89;101116.34;5031469;28;20065;-79
2022/08/04 07:03:46;;;;;;;14.50;12.63;;;;;;;22.69;77.68;101118.66;5015747;28;20037;-80
2022/08/04 07:06:12;;;;;;;17.20;13.90;;;;;;;22.64;76.79;101121.06;5007512;28;20069;-79
2022/08/04 07:08:38;;;;;;;15.93;13.88;;;;;;;22.73;76.01;101109.31;5016890;28;20056;-79
2022/08/04 07:11:04;;;;;;;17.85;15.10;;;;;;;22.79;76.01;101119.09;5016494;28;20398;-80
2022/08/04 07:13:30;;;;;;;17.00;14.43;;;;;;;22.92;76.11;101125.47;5004698;28;20032;-78
2022/08/04 07:15:58;;;;;;;17.70;15.05;;;;;;;22.88;76.32;101130.38;5014716;28;20533;-79
2022/08/04 07:18:23;;;;;;;16.55;14.52;;;;;;;22.92;75.48;101117.53;5018469;28;20034;-79
2022/08/04 07:20:50;;;;;;;17.23;14.50;;;;;;;22.96;74.94;101124.88;5014425;28;20042;-79
2022/08/04 07:23:22;;;;;;;15.13;13.52;;;;;;;22.98;74.91;101141.38;5014911;28;20473;-79
2022/08/04 07:25:56;;;;;;;16.60;12.38;;;;;;;23.03;74.32;101138.13;5019104;28;20040;-79
2022/08/04 07:28:24;;;;;;;12.95;11.27;;;;;;;22.98;73.62;101124.69;5019414;28;20318;-79
2022/08/04 07:30:49;;;;;;;15.50;12.27;;;;;;;23.06;73.75;101121.88;5016268;28;20548;-80
2022/08/04 07:33:16;;;;;;;14.70;11.95;;;;;;;23.27;73.26;101134.91;5021087;28;20108;-78
2022/08/04 07:35:42;;;;;;;17.75;12.07;;;;;;;23.27;72.93;101132.28;5023529;28;20072;-80
2022/08/04 07:38:10;;;;;;;17.02;12.52;;;;;;;23.21;72.27;101122.50;5026980;28;20029;-80
2022/08/04 07:40:36;;;;;;;14.50;12.15;;;;;;;23.24;72.55;101135.34;5035248;28;20025;-79
2022/08/04 07:43:02;;;;;;;16.67;11.70;;;;;;;23.27;72.40;101134.91;5026625;28;20470;-79
2022/08/04 07:45:27;;;;;;;15.23;10.48;;;;;;;23.43;72.73;101132.91;5022456;28;20040;-80
2022/08/04 07:47:52;;;;;;;14.10;9.98;;;;;;;23.47;71.80;101140.25;5025418;28;20033;-79
2022/08/04 07:50:19;;;;;;;14.38;10.00;;;;;;;23.47;71.44;101134.16;5007207;28;20029;-78
2022/08/04 07:52:45;;;;;;;15.05;9.20;;;;;;;23.54;71.53;101135.78;5018525;28;20117;-79
2022/08/04 07:55:11;;;;;;;11.70;9.20;;;;;;;23.65;71.14;101139.69;5021466;28;20438;-80
2022/08/04 07:57:37;;;;;;;13.82;8.52;;;;;;;23.67;71.40;101134.97;5010247;28;20025;-79
2022/08/04 08:00:04;;;;;;;8.63;5.70;;;;;;;23.77;66.97;101132.75;5020622;28;20432;-80
2022/08/04 08:02:32;;;;;;;9.68;4.30;;;;;;;23.70;65.67;101131.94;5020811;28;20025;-79
2022/08/04 08:04:58;;;;;;;8.30;3.58;;;;;;;23.77;66.21;101140.69;5022327;28;20026;-79
2022/08/04 08:07:24;;;;;;;9.85;4.05;;;;;;;23.78;64.61;101142.31;5021862;28;20038;-79
2022/08/04 08:09:49;;;;;;;9.45;3.85;;;;;;;23.95;66.57;101141.91;5013917;28;20505;-80
2022/08/04 08:12:15;;;;;;;8.27;4.40;;;;;;;23.98;65.86;101146.81;5024667;28;20061;-79
2022/08/04 08:14:41;;;;;;;7.95;4.55;;;;;;;24.06;66.44;101154.53;5016148;28;20043;-79
2022/08/04 08:17:07;;;;;;;10.85;4.60;;;;;;;24.17;66.03;101151.25;5008123;28;20025;-80
2022/08/04 08:19:33;;;;;;;11.73;4.40;;;;;;;24.24;65.49;101152.03;5024390;28;20475;-79
2022/08/04 08:21:59;;;;;;;8.38;4.35;;;;;;;24.32;65.13;101149.19;5023646;28;20013;-79
2022/08/04 08:24:25;;;;;;;10.20;4.30;;;;;;;24.32;63.87;101157.16;5025374;28;20374;-79
2022/08/04 08:26:50;;;;;;;10.60;4.15;;;;;;;24.36;64.97;101147.75;5013523;28;20488;-79
2022/08/04 08:29:16;;;;;;;9.48;3.78;;;;;;;24.39;64.22;101153.69;5026654;28;20549;-79
2022/08/04 08:31:42;;;;;;;7.90;3.70;;;;;;;24.46;63.48;101154.47;5035938;28;20033;-80
2022/08/04 08:34:10;;;;;;;9.68;4.20;;;;;;;24.57;64.34;101157.28;5031709;28;20486;-79
2022/08/04 08:36:44;;;;;;;10.05;4.05;;;;;;;24.70;65.28;101156.44;5013402;28;20363;-80
2022/08/04 08:39:17;;;;;;;7.68;3.15;;;;;;;24.78;62.32;101164.16;5025142;28;20061;-80
2022/08/04 08:42:13;;;;;;;8.98;3.17;;;;;;;24.90;62.63;101166.97;5010800;28;20398;-80
2022/08/04 08:45:15;;;;;;;9.18;2.97;;;;;;;25.00;62.11;101163.84;5021956;28;20021;-80
2022/08/04 08:48:18;;;;;;;8.85;3.20;;;;;;;25.13;62.58;101161.16;5017503;28;20028;-79
2022/08/04 08:51:01;;;;;;;8.73;2.97;;;;;;;25.26;62.54;101171.69;5016717;28;20622;-78
2022/08/04 08:53:32;;;;;;;8.70;2.88;;;;;;;25.39;61.47;101176.91;5024178;28;20033;-79
2022/08/04 08:56:44;;;;;;;7.90;3.65;;;;;;;25.49;61.82;101170.31;5030539;28;20059;-78
2022/08/04 08:59:27;;;;;;;7.68;3.03;;;;;;;25.57;62.54;101178.03;5014140;28;20036;-79
2022/08/04 09:02:31;;;;;;;8.80;3.47;;;;;;;25.57;62.79;101178.03;5011523;28;20049;-79
2022/08/04 09:05:33;;;;;;;8.23;3.78;;;;;;;25.62;60.90;101180.84;5029078;28;20035;-78
2022/08/04 09:08:13;;;;;;;9.45;3.50;;;;;;;25.71;61.29;101174.25;5037028;28;20064;-78
2022/08/04 09:10:51;;;;;;;7.43;3.03;;;;;;;25.64;59.38;101184.13;5013803;28;20034;-78
2022/08/04 09:13:17;;;;;;;;;;;;;;;25.83;60.06;101183.16;5016197;28;20100;-78
2022/08/04 09:16:00;;;;;;;7.00;2.90;;;;;;;25.85;59.88;101186.41;5020949;28;20035;-78
2022/08/04 09:18:36;;;;;;;7.43;2.65;;;;;;;25.93;59.89;101183.50;5021244;28;20034;-78
2022/08/04 09:21:39;;;;;;;9.02;3.08;;;;;;;26.04;60.41;101186.47;5020851;28;20031;-78
2022/08/04 09:24:23;;;;;;;8.52;3.30;;;;;;;26.02;57.72;101193.84;5011503;28;20354;-77
2022/08/04 09:26:59;;;;;;;8.05;2.80;;;;;;;26.15;55.92;101191.91;5014919;28;20646;-78
2022/08/04 09:29:43;;;;;;;9.27;2.90;;;;;;;26.28;56.25;101188.28;5024773;28;20095;-78
2022/08/04 09:32:33;;;;;;;7.22;2.60;;;;;;;26.21;56.71;101203.50;5008725;28;20476;-78
2022/08/04 09:35:11;;;;;;;9.45;2.58;;;;;;;26.41;55.50;101208.63;5015923;28;20037;-78
2022/08/04 09:38:05;;;;;;;10.30;2.33;;;;;;;26.37;55.52;101200.25;5004870;28;20046;-78
2022/08/04 09:40:56;;;;;;;5.43;2.05;;;;;;;26.38;55.31;101201.88;5016902;28;20055;-78
2022/08/04 09:43:40;;;;;;;6.72;2.25;;;;;;;26.27;54.24;101213.25;5007134;28;20021;-78
2022/08/04 09:46:47;;;;;;;7.25;2.20;;;;;;;26.29;56.04;101216.50;5020063;28;20028;-78
2022/08/04 09:49:28;;;;;;;9.15;1.85;;;;;;;26.32;55.47;101208.06;4946102;28;20035;-78
2022/08/04 09:52:22;;;;;;;7.90;2.15;;;;;;;26.29;56.84;101219.16;4952528;28;20102;-78
2022/08/04 09:54:58;;;;;;;7.78;2.40;;;;;;;26.30;55.91;101228.75;4946053;28;20039;-78
2022/08/04 09:57:30;;;;;;;8.88;2.17;;;;;;;26.13;56.46;101233.81;4951287;28;20031;-78
2022/08/04 10:00:09;;;;;;;8.80;2.45;;;;;;;26.06;57.29;101237.56;4953025;28;20458;-78
2022/08/04 10:02:40;;;;;;;7.90;2.08;;;;;;;26.06;57.18;101229.59;4949164;28;20027;-78
2022/08/04 10:05:15;;;;;;;6.32;1.88;;;;;;;26.02;57.15;101228.41;4935324;28;20027;-78
2022/08/04 10:08:40;;;;;;;8.15;2.38;;;;;;;26.04;57.94;101237.81;4946915;28;20042;-78
2022/08/04 10:11:20;;;;;;;8.38;2.45;;;;;;;25.75;59.52;101249.03;4892468;29;20025;-77
2022/08/04 10:14:27;;;;;;;7.35;2.20;;;;;;;25.85;59.55;101260.00;4881100;29;20128;-80
2022/08/04 10:17:20;;;;;;;6.55;2.30;;;;;;;25.77;59.87;101273.56;4865331;29;20398;-78
2022/08/04 10:20:01;;;;;;;9.25;2.97;;;;;;;25.54;61.01;101274.91;4876358;29;20120;-78
2022/08/04 10:22:36;;;;;;;8.05;3.00;;;;;;;25.34;61.97;101269.69;4880294;29;20238;-78
2022/08/04 10:25:28;;;;;;;7.72;2.78;;;;;;;25.37;63.19;101263.97;4873856;28;20036;-80
2022/08/04 10:28:01;;;;;;;8.45;2.67;;;;;;;25.31;63.15;101272.78;4958293;28;20325;-80
2022/08/04 10:30:31;;;;;;;7.85;2.97;;;;;;;25.08;65.21;101291.03;4963660;28;20031;-79
2022/08/04 10:33:38;;;;;;;10.05;3.33;;;;;;;25.25;64.52;101313.44;4963937;28;20023;-79
2022/08/04 10:36:08;;;;;;;13.05;4.10;;;;;;;24.96;65.49;101303.31;4964362;28;20038;-80
2022/08/04 10:38:44;;;;;;;9.77;3.90;;;;;;;24.62;67.56;101294.59;4965429;28;20615;-78
2022/08/04 10:41:48;;;;;;;10.65;3.55;;;;;;;24.66;67.61;101284.38;4971775;28;20044;-77
2022/08/04 10:44:23;;;;;;;11.10;4.07;;;;;;;24.23;71.28;101320.06;5014113;28;20094;-77
2022/08/04 10:46:59;;;;;;;9.50;3.72;;;;;;;24.27;71.38;101321.31;5026637;28;20436;-77
2022/08/04 10:49:43;;;;;;;10.02;3.80;;;;;;;24.27;71.50;101326.59;5022947;28;20022;-77
2022/08/04 10:52:34;;;;;;;8.82;3.95;;;;;;;24.28;72.13;101322.94;5022897;28;20040;-77
2022/08/04 10:55:26;;;;;;;8.38;4.22;;;;;;;23.98;72.93;101319.84;5020733;28;20025;-77
2022/08/04 10:58:00;;;;;;;9.30;3.78;;;;;;;24.10;73.81;101330.66;5002208;28;20022;-77
2022/08/04 11:00:27;;;;;;;7.72;3.90;;;;;;;24.05;73.71;101325.97;5020678;28;20034;-77
2022/08/04 11:03:07;;;;;;;7.35;3.83;;;;;;;24.14;74.06;101331.88;5030220;28;20415;-77
2022/08/04 11:05:52;;;;;;;7.47;3.67;;;;;;;24.15;73.23;101304.38;5026422;28;20034;-77
2022/08/04 11:08:25;;;;;;;10.60;4.20;;;;;;;24.01;74.45;101269.09;5026029;28;20486;-77
2022/08/04 11:10:59;;;;;;;9.18;4.38;;;;;;;24.24;73.49;101262.56;5017676;28;20029;-78
2022/08/04 11:13:32;;;;;;;9.18;4.18;;;;;;;24.26;74.85;101261.34;5025498;28;20029;-77
2022/08/04 11:16:03;;;;;;;10.70;4.70;;;;;;;24.28;74.95;101272.56;4993721;28;20084;-78
2022/08/04 11:18:57;;;;;;;8.57;4.32;;;;;;;24.30;75.11;101283.75;5020502;28;20025;-77
2022/08/04 11:21:32;;;;;;;7.40;4.30;;;;;;;24.15;75.12;101300.91;4995835;28;20041;-77
2022/08/04 11:24:07;;;;;;;7.50;4.68;;;;;;;24.10;76.51;101304.97;5011669;28;20049;-77
2022/08/04 11:26:58;;;;;;;9.70;4.60;;;;;;;24.23;74.88;101306.81;5021903;28;20448;-77
2022/08/04 11:29:33;;;;;;;9.75;4.40;;;;;;;24.05;75.82;101290.69;5009341;28;20080;-77
2022/08/04 11:32:04;;;;;;;9.60;4.00;;;;;;;24.05;74.51;101280.09;5018846;28;20021;-77
2022/08/04 11:34:33;;;;;;;7.75;3.92;;;;;;;24.02;73.88;101275.19;5013239;28;20381;-77
2022/08/04 11:37:17;;;;;;;7.93;3.92;;;;;;;24.08;73.72;101277.84;5025455;28;20033;-77
2022/08/04 11:39:49;;;;;;;7.22;3.83;;;;;;;23.84;76.08;101289.84;5024719;28;20036;-77
2022/08/04 11:42:26;;;;;;;6.75;3.75;;;;;;;23.72;74.57;101280.88;5020282;28;20029;-77
2022/08/04 11:45:09;;;;;;;6.95;3.97;;;;;;;23.98;73.29;101260.75;5011083;28;20053;-77
2022/08/04 11:47:40;;;;;;;8.68;4.55;;;;;;;23.98;73.71;101263.38;5018093;28;20034;-77
2022/08/04 11:50:19;;;;;;;7.38;4.28;;;;;;;24.01;74.05;101273.56;5027668;28;20144;-77
2022/08/04 11:52:46;;;;;;;8.27;4.50;;;;;;;23.97;73.87;101267.03;5013665;28;20021;-77
2022/08/04 11:55:15;;;;;;;11.25;4.80;;;;;;;23.93;75.25;101279.06;5019091;28;20021;-77
2022/08/04 11:57:42;;;;;;;8.35;5.10;;;;;;;23.81;74.03;101279.66;5013585;28;20356;-78
2022/08/04 12:00:11;;;;;;;8.68;5.43;;;;;;;23.95;75.49;101274.38;5022167;28;20088;-78
2022/08/04 12:03:01;;;;;;;8.15;5.60;;;;;;;23.97;73.40;101272.34;5009147;28;20166;-77
2022/08/04 12:05:33;;;;;;;9.57;5.15;;;;;;;23.95;74.16;101261.94;5020140;28;20025;-77